createdAt,value
2018-02-07T00:00:29.617Z,11.57
2018-02-07T00:02:57.232Z,12.50
2018-02-07T00:05:27.964Z,10.60
2018-02-07T00:07:54.361Z,11.37
2018-02-07T00:10:21.108Z,11.50
2018-02-07T00:12:48.216Z,11.33
2018-02-07T00:15:14.916Z,10.63
2018-02-07T00:17:41.400Z,11.33
2018-02-07T00:20:08.780Z,11.70
2018-02-07T00:22:35.136Z,12.00
2018-02-07T00:25:02.318Z,11.98
2018-02-07T00:27:28.699Z,10.87
2018-02-07T00:29:55.134Z,11.77
2018-02-07T00:32:21.464Z,11.40
2018-02-07T00:34:47.893Z,11.70
2018-02-07T00:37:14.846Z,11.90
2018-02-07T00:39:41.324Z,13.20
2018-02-07T00:42:07.724Z,11.73
2018-02-07T00:44:34.187Z,11.60
2018-02-07T00:47:00.560Z,12.37
2018-02-07T00:49:27.673Z,13.02
2018-02-07T00:51:54.082Z,12.80
2018-02-07T00:54:20.812Z,12.00
2018-02-07T00:56:47.216Z,12.63
2018-02-07T00:59:13.642Z,12.90
2018-02-07T01:01:39.995Z,11.83
2018-02-07T01:04:06.413Z,10.43
2018-02-07T01:06:32.760Z,12.37
2018-02-07T01:09:00.406Z,13.25
2018-02-07T01:11:27.408Z,13.13
2018-02-07T01:13:53.916Z,11.80
2018-02-07T01:16:21.082Z,11.63
2018-02-07T01:18:47.467Z,11.90
2018-02-07T01:21:16.124Z,12.50
2018-02-07T01:23:42.515Z,11.65
2018-02-07T01:26:10.015Z,12.63
2018-02-07T01:28:37.120Z,11.35
2018-02-07T01:31:03.628Z,11.68
2018-02-07T01:33:29.980Z,11.43
2018-02-07T01:35:56.378Z,10.32
2018-02-07T01:38:25.689Z,10.93
2018-02-07T01:40:52.504Z,10.95
2018-02-07T01:43:19.419Z,10.60
2018-02-07T01:45:45.921Z,10.70
2018-02-07T01:48:12.444Z,11.60
2018-02-07T01:50:39.664Z,11.48
2018-02-07T01:53:06.131Z,11.23
2018-02-07T01:55:32.934Z,12.35
2018-02-07T01:57:59.349Z,11.98
2018-02-07T02:00:25.740Z,12.10
2018-02-07T02:02:52.119Z,10.77
2018-02-07T02:05:18.668Z,18.65
2018-02-07T02:07:45.433Z,14.80
2018-02-07T02:10:11.866Z,14.25
2018-02-07T02:12:38.972Z,16.27
2018-02-07T02:15:06.105Z,15.70
2018-02-07T02:17:32.785Z,16.40
2018-02-07T02:20:09.128Z,11.82
2018-02-07T02:22:36.414Z,14.40
2018-02-07T02:25:03.179Z,12.48
2018-02-07T02:27:30.097Z,12.57
2018-02-07T02:29:56.477Z,13.00
2018-02-07T02:32:22.829Z,11.73
2018-02-07T02:34:49.210Z,12.68
2018-02-07T02:37:16.292Z,11.95
2018-02-07T02:39:42.654Z,10.90
2018-02-07T02:42:09.382Z,12.02
2018-02-07T02:44:35.767Z,13.77
2018-02-07T02:47:02.183Z,11.55
2018-02-07T02:49:29.109Z,11.65
2018-02-07T02:51:55.830Z,10.93
2018-02-07T02:54:23.493Z,11.57
2018-02-07T02:56:49.926Z,12.52
2018-02-07T02:59:16.274Z,11.32
2018-02-07T03:01:43.426Z,10.05
2018-02-07T03:04:10.741Z,10.93
2018-02-07T03:06:37.135Z,13.93
2018-02-07T03:09:03.687Z,12.50
2018-02-07T03:11:30.877Z,11.57
2018-02-07T03:13:57.300Z,11.90
2018-02-07T03:16:23.682Z,12.00
2018-02-07T03:18:50.206Z,12.37
2018-02-07T03:21:16.987Z,12.10
2018-02-07T03:23:44.564Z,11.90
2018-02-07T03:26:10.976Z,11.38
2018-02-07T03:28:37.693Z,10.95
2018-02-07T03:31:05.209Z,11.43
2018-02-07T03:33:31.615Z,11.65
2018-02-07T03:35:57.982Z,10.63
2018-02-07T03:38:31.330Z,11.38
2018-02-07T03:40:57.791Z,9.55
2018-02-07T03:43:24.202Z,9.93
2018-02-07T03:45:51.374Z,10.65
2018-02-07T03:48:18.109Z,11.73
2018-02-07T03:50:44.836Z,11.55
2018-02-07T03:53:11.231Z,12.40
2018-02-07T03:55:37.652Z,10.75
2018-02-07T03:58:04.792Z,11.77
2018-02-07T04:00:31.120Z,12.18
2018-02-07T04:02:57.541Z,12.20
2018-02-07T04:05:24.355Z,11.25
2018-02-07T04:07:50.732Z,12.45
2018-02-07T04:10:17.890Z,12.60
2018-02-07T04:12:45.021Z,12.10
2018-02-07T04:15:11.475Z,13.20
2018-02-07T04:17:38.234Z,12.98
2018-02-07T04:20:04.731Z,11.70
2018-02-07T04:22:31.089Z,12.52
2018-02-07T04:27:31.029Z,11.80
2018-02-07T04:29:58.315Z,12.30
2018-02-07T04:32:25.120Z,13.93
2018-02-07T04:34:51.510Z,14.38
2018-02-07T04:37:18.608Z,12.55
2018-02-07T04:39:44.924Z,12.80
2018-02-07T04:42:11.822Z,13.32
2018-02-07T04:44:40.914Z,11.65
2018-02-07T04:47:07.452Z,13.98
2018-02-07T04:49:34.618Z,11.55
2018-02-07T04:52:03.334Z,13.38
2018-02-07T04:54:30.329Z,13.50
2018-02-07T04:56:58.555Z,12.52
2018-02-07T04:59:25.484Z,12.18
2018-02-07T05:01:52.398Z,13.30
2018-02-07T05:04:20.970Z,12.37
2018-02-07T05:06:48.106Z,13.10
2018-02-07T05:09:15.039Z,13.18
2018-02-07T05:11:42.094Z,11.98
2018-02-07T05:14:09.469Z,11.52
2018-02-07T05:16:36.392Z,11.32
2018-02-07T05:19:04.125Z,13.02
2018-02-07T05:21:31.813Z,12.93
2018-02-07T05:23:58.589Z,11.52
2018-02-07T05:26:25.897Z,12.90
2018-02-07T05:28:52.309Z,12.13
2018-02-07T05:31:19.162Z,11.52
2018-02-07T05:33:45.702Z,11.55
2018-02-07T05:36:12.137Z,11.95
2018-02-07T05:38:38.682Z,10.82
2018-02-07T05:41:05.304Z,11.18
2018-02-07T05:43:31.830Z,11.40
2018-02-07T05:45:59.083Z,11.73
2018-02-07T05:48:25.578Z,11.95
2018-02-07T05:50:52.703Z,13.75
2018-02-07T05:53:19.629Z,11.77
2018-02-07T05:55:46.083Z,12.07
2018-02-07T05:58:13.246Z,12.13
2018-02-07T06:00:39.627Z,12.85
2018-02-07T06:03:07.184Z,13.43
2018-02-07T06:05:33.959Z,12.75
2018-02-07T06:08:00.750Z,12.93
2018-02-07T06:10:27.537Z,12.73
2018-02-07T06:12:53.963Z,13.15
2018-02-07T06:15:21.194Z,13.25
2018-02-07T06:17:47.609Z,14.48
2018-02-07T06:20:13.963Z,12.95
2018-02-07T06:22:41.142Z,13.75
2018-02-07T06:25:07.577Z,15.20
2018-02-07T06:27:34.711Z,15.45
2018-02-07T06:30:01.973Z,15.63
2018-02-07T06:32:33.062Z,17.02
2018-02-07T06:35:00.601Z,14.05
2018-02-07T06:37:28.504Z,13.70
2018-02-07T06:39:55.045Z,16.83
2018-02-07T06:42:22.177Z,16.10
2018-02-07T06:44:49.151Z,13.50
2018-02-07T06:47:15.692Z,15.10
2018-02-07T06:49:42.930Z,15.23
2018-02-07T06:52:09.355Z,14.90
2018-02-07T06:54:37.528Z,15.32
2018-02-07T06:57:04.000Z,15.80
2018-02-07T06:59:30.535Z,15.35
2018-02-07T07:01:58.325Z,17.73
2018-02-07T07:04:24.765Z,14.05
2018-02-07T07:06:51.216Z,15.57
2018-02-07T07:09:19.333Z,15.40
2018-02-07T07:11:46.636Z,17.40
2018-02-07T07:14:13.724Z,16.42
2018-02-07T07:16:40.177Z,16.70
2018-02-07T07:19:06.662Z,15.20
2018-02-07T07:21:33.426Z,15.48
2018-02-07T07:24:01.994Z,16.77
2018-02-07T07:26:29.207Z,18.75
2018-02-07T07:28:55.743Z,15.38
2018-02-07T07:31:22.997Z,15.32
2018-02-07T07:33:50.595Z,14.87
2018-02-07T07:36:18.610Z,13.20
2018-02-07T07:38:45.459Z,13.75
2018-02-07T07:41:12.637Z,15.50
2018-02-07T07:43:40.716Z,15.38
2018-02-07T07:46:07.578Z,16.58
2018-02-07T07:48:35.091Z,13.90
2018-02-07T07:51:01.499Z,14.63
2018-02-07T07:53:27.956Z,17.27
2018-02-07T07:55:54.356Z,17.60
2018-02-07T07:58:21.157Z,20.45
2018-02-07T08:00:48.113Z,16.27
2018-02-07T08:03:14.458Z,17.85
2018-02-07T08:05:42.648Z,15.57
2018-02-07T08:08:09.121Z,18.07
2018-02-07T08:10:35.475Z,17.98
2018-02-07T08:13:02.311Z,17.05
2018-02-07T08:15:29.235Z,15.90
2018-02-07T08:17:56.339Z,17.60
2018-02-07T08:20:22.866Z,17.85
2018-02-07T08:22:50.028Z,18.33
2018-02-07T08:25:16.837Z,16.83
2018-02-07T08:27:43.944Z,20.53
2018-02-07T08:30:10.426Z,20.37
2018-02-07T08:32:36.835Z,20.17
2018-02-07T08:35:03.650Z,19.17
2018-02-07T08:37:30.823Z,19.10
2018-02-07T08:39:57.886Z,19.97
2018-02-07T08:42:25.364Z,20.00
2018-02-07T08:44:51.820Z,17.47
2018-02-07T08:47:18.283Z,18.80
2018-02-07T08:49:45.463Z,19.90
2018-02-07T08:52:13.109Z,17.10
2018-02-07T08:54:39.913Z,17.40
2018-02-07T08:57:06.219Z,15.80
2018-02-07T08:59:32.608Z,17.43
2018-02-07T09:01:59.355Z,17.23
2018-02-07T09:04:25.763Z,15.77
2018-02-07T09:06:52.200Z,16.00
2018-02-07T09:09:18.653Z,16.67
2018-02-07T09:11:46.308Z,17.13
2018-02-07T09:14:12.788Z,18.70
2018-02-07T09:16:39.616Z,15.97
2018-02-07T09:19:06.755Z,16.93
2018-02-07T09:21:34.691Z,17.80
2018-02-07T09:24:01.179Z,17.10
2018-02-07T09:26:28.483Z,20.70
2018-02-07T09:28:56.698Z,17.70
2018-02-07T09:31:24.504Z,15.13
2018-02-07T09:33:51.704Z,15.63
2018-02-07T09:36:18.593Z,19.53
2018-02-07T09:38:45.027Z,16.23
2018-02-07T09:41:11.622Z,15.00
2018-02-07T09:43:38.032Z,16.37
2018-02-07T09:46:04.570Z,14.97
2018-02-07T09:48:31.068Z,15.07
2018-02-07T09:50:57.715Z,16.63
2018-02-07T09:53:24.106Z,14.13
2018-02-07T09:55:50.576Z,15.77
2018-02-07T09:58:17.949Z,14.00
2018-02-07T10:00:44.642Z,13.10
2018-02-07T10:03:11.801Z,14.53
2018-02-07T10:05:40.036Z,13.20
2018-02-07T10:08:08.123Z,13.07
2018-02-07T10:10:34.467Z,13.70
2018-02-07T10:13:00.875Z,13.20
2018-02-07T10:15:27.267Z,13.23
2018-02-07T10:17:54.048Z,13.73
2018-02-07T10:20:22.103Z,12.90
2018-02-07T10:22:49.603Z,11.20
2018-02-07T10:25:16.375Z,10.90
2018-02-07T10:27:42.827Z,11.07
2018-02-07T10:30:09.237Z,9.70
2018-02-07T10:32:36.159Z,10.90
2018-02-07T10:35:03.101Z,8.60
2018-02-07T10:37:29.466Z,10.83
2018-02-07T10:39:57.394Z,9.80
2018-02-07T10:42:23.722Z,9.80
2018-02-07T10:44:50.084Z,9.90
2018-02-07T10:47:17.798Z,10.67
2018-02-07T10:49:44.361Z,10.33
2018-02-07T10:52:10.708Z,9.70
2018-02-07T10:54:38.172Z,11.03
2018-02-07T10:57:04.704Z,9.23
2018-02-07T10:59:31.139Z,9.20
2018-02-07T11:01:58.488Z,9.67
2018-02-07T11:04:24.884Z,9.30
2018-02-07T11:06:51.640Z,10.10
2018-02-07T11:09:18.042Z,9.63
2018-02-07T11:11:44.894Z,10.20
2018-02-07T11:14:11.427Z,9.80
2018-02-07T11:16:39.319Z,8.67
2018-02-07T11:19:05.822Z,9.23
2018-02-07T11:21:33.321Z,9.63
2018-02-07T11:24:00.466Z,10.33
2018-02-07T11:26:26.900Z,7.80
2018-02-07T11:28:54.347Z,7.37
2018-02-07T11:31:21.835Z,9.17
2018-02-07T11:33:48.406Z,8.17
2018-02-07T11:36:15.301Z,7.73
2018-02-07T11:38:41.825Z,7.97
2018-02-07T11:41:08.525Z,8.93
2018-02-07T11:43:35.278Z,8.50
2018-02-07T11:46:03.255Z,8.27
2018-02-07T11:48:30.373Z,7.70
2018-02-07T11:50:57.553Z,8.10
2018-02-07T11:53:24.753Z,8.00
2018-02-07T11:55:51.246Z,8.30
2018-02-07T11:58:17.772Z,8.17
2018-02-07T12:00:44.222Z,8.93
2018-02-07T12:03:11.350Z,7.70
2018-02-07T12:05:37.730Z,7.13
2018-02-07T12:08:04.923Z,7.20
2018-02-07T12:10:31.720Z,6.73
2018-02-07T12:12:59.147Z,7.37
2018-02-07T12:15:25.924Z,7.50
2018-02-07T12:17:52.421Z,8.50
2018-02-07T12:20:18.829Z,8.73
2018-02-07T12:22:45.589Z,8.73
2018-02-07T12:25:12.380Z,8.80
2018-02-07T12:27:39.892Z,7.93
2018-02-07T12:30:06.343Z,8.03
2018-02-07T12:32:33.476Z,8.20
2018-02-07T12:34:59.831Z,8.07
2018-02-07T12:37:26.634Z,7.90
2018-02-07T12:39:54.583Z,8.60
2018-02-07T12:42:21.967Z,8.60
2018-02-07T12:44:48.398Z,7.70
2018-02-07T12:47:14.813Z,8.10
2018-02-07T12:49:41.136Z,7.70
2018-02-07T12:52:07.499Z,7.47
2018-02-07T12:54:33.942Z,7.30
2018-02-07T12:57:00.441Z,8.40
2018-02-07T12:59:27.586Z,8.47
2018-02-07T13:01:54.883Z,8.70
2018-02-07T13:04:22.318Z,9.13
2018-02-07T13:06:48.710Z,9.53
2018-02-07T13:09:16.598Z,8.10
2018-02-07T13:11:43.054Z,8.73
2018-02-07T13:14:09.363Z,7.90
2018-02-07T13:16:36.554Z,8.33
2018-02-07T13:19:02.947Z,7.93
2018-02-07T13:21:29.482Z,8.80
2018-02-07T13:23:55.998Z,8.90
2018-02-07T13:26:22.340Z,9.27
2018-02-07T13:28:49.417Z,8.10
2018-02-07T13:31:16.854Z,7.53
2018-02-07T13:33:43.312Z,7.80
2018-02-07T13:36:10.408Z,9.03
2018-02-07T13:38:36.773Z,7.80
2018-02-07T13:41:03.916Z,8.40
2018-02-07T13:43:31.175Z,7.90
2018-02-07T13:45:57.539Z,7.23
2018-02-07T13:48:24.683Z,6.87
2018-02-07T13:50:51.076Z,6.77
2018-02-07T13:53:17.512Z,7.13
2018-02-07T13:55:44.579Z,6.87
2018-02-07T13:58:12.187Z,7.23
2018-02-07T14:00:44.628Z,6.00
2018-02-07T14:03:10.942Z,6.10
2018-02-07T14:05:37.333Z,5.87
2018-02-07T14:08:04.037Z,7.90
2018-02-07T14:10:30.569Z,8.40
2018-02-07T14:12:57.313Z,7.10
2018-02-07T14:15:23.799Z,7.40
2018-02-07T14:17:50.435Z,7.30
2018-02-07T14:20:18.596Z,7.97
2018-02-07T14:22:46.083Z,8.70
2018-02-07T14:25:13.644Z,7.60
2018-02-07T14:27:40.815Z,8.33
2018-02-07T14:30:07.356Z,8.23
2018-02-07T14:32:34.461Z,8.13
2018-02-07T14:35:00.951Z,8.30
2018-02-07T14:37:27.717Z,7.77
2018-02-07T14:39:54.590Z,8.70
2018-02-07T14:42:21.773Z,7.43
2018-02-07T14:44:48.218Z,8.60
2018-02-07T14:47:15.549Z,8.10
2018-02-07T14:49:42.299Z,8.27
2018-02-07T14:52:09.440Z,7.80
2018-02-07T14:54:36.438Z,7.67
2018-02-07T14:57:03.691Z,7.90
2018-02-07T14:59:30.061Z,7.90
2018-02-07T15:01:58.268Z,8.10
2018-02-07T15:04:25.692Z,7.87
2018-02-07T15:06:52.934Z,7.23
2018-02-07T15:09:20.551Z,7.93
2018-02-07T15:11:47.076Z,7.80
2018-02-07T15:14:13.898Z,7.57
2018-02-07T15:16:40.324Z,7.87
2018-02-07T15:19:07.157Z,7.40
2018-02-07T15:21:34.761Z,8.13
2018-02-07T15:24:02.450Z,7.93
2018-02-07T15:26:29.268Z,6.80
2018-02-07T15:28:57.102Z,8.33
2018-02-07T15:31:24.613Z,8.07
2018-02-07T15:33:51.887Z,7.47
2018-02-07T15:36:18.543Z,7.23
2018-02-07T15:38:45.944Z,7.60
2018-02-07T15:41:13.275Z,7.77
2018-02-07T15:43:40.357Z,9.60
2018-02-07T15:46:06.841Z,7.10
2018-02-07T15:48:34.026Z,8.67
2018-02-07T15:51:00.525Z,9.30
2018-02-07T15:53:27.354Z,8.10
2018-02-07T15:55:53.804Z,7.50
2018-02-07T15:58:20.596Z,8.70
2018-02-07T16:00:47.315Z,8.37
2018-02-07T16:03:14.591Z,8.67
2018-02-07T16:05:41.729Z,8.47
2018-02-07T16:08:08.099Z,7.80
2018-02-07T16:10:34.537Z,7.50
2018-02-07T16:13:01.001Z,7.80
2018-02-07T16:15:27.781Z,7.93
2018-02-07T16:17:54.903Z,7.67
2018-02-07T16:20:22.354Z,8.80
2018-02-07T16:22:49.074Z,8.23
2018-02-07T16:25:16.640Z,10.57
2018-02-07T16:27:43.780Z,9.40
2018-02-07T16:30:10.504Z,9.90
2018-02-07T16:32:38.364Z,9.07
2018-02-07T16:35:05.579Z,13.17
2018-02-07T16:37:32.085Z,9.50
2018-02-07T16:39:58.581Z,8.70
2018-02-07T16:42:32.284Z,11.73
2018-02-07T16:44:58.752Z,9.67
2018-02-07T16:47:25.981Z,9.43
2018-02-07T16:49:52.467Z,8.73
2018-02-07T16:52:19.245Z,9.47
2018-02-07T16:54:45.633Z,10.10
2018-02-07T16:57:12.324Z,9.50
2018-02-07T16:59:39.138Z,10.40
2018-02-07T17:02:05.716Z,9.90
2018-02-07T17:04:33.958Z,9.90
2018-02-07T17:07:00.861Z,11.00
2018-02-07T17:09:28.254Z,9.10
2018-02-07T17:11:56.481Z,9.37
2018-02-07T17:14:23.822Z,9.43
2018-02-07T17:16:52.252Z,9.63
2018-02-07T17:19:18.751Z,8.30
2018-02-07T17:21:45.153Z,12.57
2018-02-07T17:24:12.423Z,10.47
2018-02-07T17:26:38.844Z,10.10
2018-02-07T17:29:06.005Z,10.67
2018-02-07T17:31:32.405Z,10.83
2018-02-07T17:33:59.648Z,10.80
2018-02-07T17:36:26.580Z,10.90
2018-02-07T17:38:53.440Z,11.00
2018-02-07T17:41:20.830Z,11.20
2018-02-07T17:43:47.327Z,12.17
2018-02-07T17:46:14.767Z,11.57
2018-02-07T17:48:41.457Z,13.90
2018-02-07T17:51:08.399Z,13.87
2018-02-07T17:53:36.548Z,12.70
2018-02-07T17:56:05.836Z,12.73
2018-02-07T17:58:33.382Z,12.57
2018-02-07T18:00:59.812Z,13.40
2018-02-07T18:03:26.361Z,12.27
2018-02-07T18:05:53.034Z,13.83
2018-02-07T18:08:19.847Z,13.37
2018-02-07T18:10:47.123Z,15.40
2018-02-07T18:13:15.451Z,17.17
2018-02-07T18:15:42.251Z,13.63
2018-02-07T18:18:10.511Z,13.20
2018-02-07T18:20:38.848Z,14.50
2018-02-07T18:23:05.241Z,12.40
2018-02-07T18:25:32.309Z,14.20
2018-02-07T18:27:58.821Z,14.37
2018-02-07T18:30:25.375Z,15.63
2018-02-07T18:32:52.884Z,14.47
2018-02-07T18:35:20.445Z,13.93
2018-02-07T18:37:47.940Z,14.40
2018-02-07T18:40:14.413Z,15.50
2018-02-07T18:42:42.375Z,14.67
2018-02-07T18:45:08.822Z,15.50
2018-02-07T18:47:36.151Z,14.90
2018-02-07T18:50:02.912Z,14.87
2018-02-07T18:52:30.029Z,13.47
2018-02-07T18:54:56.493Z,14.93
2018-02-07T18:57:23.627Z,15.53
2018-02-07T18:59:52.117Z,15.33
2018-02-07T19:02:18.767Z,15.47
2018-02-07T19:04:45.460Z,16.20
2018-02-07T19:07:12.962Z,16.77
2018-02-07T19:09:39.590Z,14.57
2018-02-07T19:12:06.017Z,14.73
2018-02-07T19:14:32.686Z,15.50
2018-02-07T19:16:59.867Z,19.43
2018-02-07T19:19:27.043Z,15.50
2018-02-07T19:21:54.894Z,15.83
2018-02-07T19:24:22.669Z,15.23
2018-02-07T19:26:50.643Z,16.67
2018-02-07T19:29:17.920Z,16.60
2018-02-07T19:31:44.819Z,15.97
2018-02-07T19:34:11.728Z,19.40
2018-02-07T19:36:38.457Z,19.67
2018-02-07T19:39:05.860Z,18.57
2018-02-07T19:41:33.546Z,18.27
2018-02-07T19:44:00.397Z,16.30
2018-02-07T19:46:27.638Z,17.43
2018-02-07T19:49:00.678Z,17.80
2018-02-07T19:51:31.763Z,17.53
2018-02-07T19:54:01.511Z,17.27
2018-02-07T19:56:28.728Z,18.13
2018-02-07T19:58:55.893Z,15.90
2018-02-07T20:01:23.620Z,16.77
2018-02-07T20:03:52.395Z,16.63
2018-02-07T20:06:19.331Z,16.60
2018-02-07T20:08:45.833Z,17.10
2018-02-07T20:11:12.543Z,18.80
2018-02-07T20:13:39.795Z,20.57
2018-02-07T20:16:08.061Z,20.30
2018-02-07T20:18:35.105Z,21.10
2018-02-07T20:21:02.343Z,18.30
2018-02-07T20:23:29.468Z,18.53
2018-02-07T20:25:57.725Z,17.80
2018-02-07T20:28:24.569Z,17.90
2018-02-07T20:30:52.173Z,17.17
2018-02-07T20:33:19.343Z,18.73
2018-02-07T20:35:47.409Z,17.67
2018-02-07T20:38:14.567Z,15.60
2018-02-07T20:40:42.477Z,16.67
2018-02-07T20:43:09.567Z,16.67
2018-02-07T20:45:36.630Z,17.37
2018-02-07T20:50:55.678Z,16.40
2018-02-07T20:53:22.314Z,18.73
2018-02-07T20:55:48.898Z,20.10
2018-02-07T20:58:16.638Z,21.77
2018-02-07T21:00:43.480Z,19.67
2018-02-07T21:03:10.392Z,18.43
2018-02-07T21:05:37.302Z,15.93
2018-02-07T21:08:04.538Z,15.30
2018-02-07T21:10:31.994Z,16.23
2018-02-07T21:12:59.818Z,15.77
2018-02-07T21:15:27.160Z,18.40
2018-02-07T21:17:54.125Z,19.50
2018-02-07T21:20:21.440Z,14.73
2018-02-07T21:22:48.935Z,17.10
2018-02-07T21:25:15.859Z,18.40
2018-02-07T21:27:43.743Z,18.70
2018-02-07T21:30:11.826Z,16.27
2018-02-07T21:32:38.874Z,16.80
2018-02-07T21:35:06.151Z,18.20
2018-02-07T21:37:32.754Z,19.43
2018-02-07T21:40:00.140Z,19.40
2018-02-07T21:42:27.133Z,20.97
2018-02-07T21:44:53.947Z,19.40
2018-02-07T21:47:20.672Z,19.77
2018-02-07T21:49:48.222Z,21.70
2018-02-07T21:52:17.089Z,19.90
2018-02-07T21:54:43.861Z,21.57
2018-02-07T21:57:11.033Z,19.40
2018-02-07T21:59:38.939Z,22.20
2018-02-07T22:02:05.719Z,19.70
2018-02-07T22:04:33.021Z,22.37
2018-02-07T22:06:59.979Z,21.50
2018-02-07T22:09:27.349Z,20.87
2018-02-07T22:11:54.109Z,20.77
2018-02-07T22:14:20.789Z,19.70
2018-02-07T22:16:47.545Z,18.50
2018-02-07T22:19:14.651Z,17.67
2018-02-07T22:21:41.308Z,17.00
2018-02-07T22:24:07.981Z,18.00
2018-02-07T22:26:35.692Z,17.70
2018-02-07T22:29:02.627Z,20.93
2018-02-07T22:37:12.465Z,19.47
2018-02-07T22:39:39.271Z,18.50
2018-02-07T22:42:11.554Z,18.33
2018-02-07T22:44:38.326Z,18.10
2018-02-07T22:47:06.892Z,16.33
2018-02-07T23:00:52.983Z,16.20
2018-02-07T23:03:20.287Z,18.50
2018-02-07T23:05:47.521Z,14.00
2018-02-07T23:08:15.261Z,17.47
2018-02-07T23:10:42.789Z,16.20
2018-02-07T23:13:09.873Z,16.83
2018-02-07T23:15:43.551Z,16.67
2018-02-07T23:18:17.236Z,15.97
2018-02-07T23:20:44.728Z,17.33
2018-02-07T23:23:11.676Z,18.03
2018-02-07T23:25:39.133Z,19.70
2018-02-07T23:28:06.537Z,16.63
2018-02-07T23:30:34.440Z,18.37
2018-02-07T23:33:01.765Z,19.27
2018-02-07T23:35:29.867Z,17.63
2018-02-07T23:37:56.995Z,18.00
2018-02-07T23:40:23.645Z,18.12
2018-02-07T23:42:50.582Z,20.27
2018-02-07T23:45:17.980Z,15.70
2018-02-07T23:47:45.068Z,17.45
2018-02-07T23:50:11.611Z,19.33
2018-02-07T23:52:39.883Z,18.12
2018-02-07T23:55:08.133Z,18.97
2018-02-07T23:57:35.157Z,18.40
